Time;durP1;ratioP1;P1;durP2;ratioP2;P2;SDS_P1;SDS_P2;PMS_P1;PMS_P2;Temp;Humidity;BMP_temperature;BMP_pressure;BME280_temperature;BME280_humidity;BME280_pressure;Samples;Min_cycle;Max_cycle;Signal;HPM_P1;HPM_P2
2021/08/05 00:00:57;;;;;;;7.00;5.03;;;;;;;;;;4980917;28;20433;-93
2021/08/05 00:03:24;;;;;;;6.10;4.95;;;;;;;;;;4984572;28;20473;-93
2021/08/05 00:05:51;;;;;;;6.90;5.07;;;;;;;;;;4978656;28;20409;-93
2021/08/05 00:08:18;;;;;;;5.28;4.75;;;;;;;;;;4981486;28;20417;-93
2021/08/05 00:10:45;;;;;;;6.80;5.20;;;;;;;;;;4979200;28;20432;-93
2021/08/05 00:13:12;;;;;;;5.82;4.65;;;;;;;;;;4984170;28;20916;-94
2021/08/05 00:15:39;;;;;;;6.23;4.80;;;;;;;;;;4976727;28;20414;-92
2021/08/05 00:18:08;;;;;;;5.63;5.00;;;;;;;;;;4980264;28;20416;-94
2021/08/05 00:20:36;;;;;;;5.65;4.50;;;;;;;;;;4981402;28;20417;-93
2021/08/05 00:23:03;;;;;;;5.97;4.88;;;;;;;;;;4981302;28;20414;-93
2021/08/05 00:25:30;;;;;;;5.75;4.70;;;;;;;;;;4982561;28;20418;-93
2021/08/05 00:27:57;;;;;;;5.25;4.45;;;;;;;;;;4980658;28;20414;-93
2021/08/05 00:30:24;;;;;;;5.28;4.63;;;;;;;;;;4979151;28;20426;-93
2021/08/05 00:32:51;;;;;;;6.10;3.97;;;;;;;;;;4980659;28;20805;-93
2021/08/05 00:35:19;;;;;;;5.63;4.13;;;;;;;;;;4983387;28;20479;-93
2021/08/05 00:37:46;;;;;;;6.03;3.80;;;;;;;;;;4981013;28;20465;-93
2021/08/05 00:40:13;;;;;;;6.53;3.87;;;;;;;;;;4977136;28;20418;-93
2021/08/05 00:42:40;;;;;;;5.13;3.90;;;;;;;;;;4979945;28;20441;-93
2021/08/05 00:45:09;;;;;;;7.38;4.50;;;;;;;;;;4980798;28;20420;-92
2021/08/05 00:47:35;;;;;;;6.75;4.45;;;;;;;;;;4980955;28;20413;-92
2021/08/05 00:50:03;;;;;;;7.03;4.40;;;;;;;;;;4981037;28;20425;-92
2021/08/05 00:52:32;;;;;;;6.68;4.75;;;;;;;;;;4982015;28;20406;-93
2021/08/05 00:54:58;;;;;;;5.85;4.50;;;;;;;;;;4979875;28;20423;-92
2021/08/05 00:57:25;;;;;;;6.47;4.80;;;;;;;;;;4979086;28;20926;-93
2021/08/05 00:59:52;;;;;;;5.63;4.80;;;;;;;;;;4982085;28;20415;-92
2021/08/05 01:02:21;;;;;;;6.13;4.93;;;;;;;;;;4980044;28;20416;-91
2021/08/05 01:04:52;;;;;;;5.40;4.90;;;;;;;;;;4981539;28;20413;-93
2021/08/05 01:07:33;;;;;;;6.13;5.22;;;;;;;;;;4978269;28;20428;-93
2021/08/05 01:10:08;;;;;;;12.65;6.18;;;;;;;;;;4954136;28;20403;-90
2021/08/05 01:12:43;;;;;;;6.95;4.85;;;;;;;;;;4980008;28;20410;-87
2021/08/05 01:15:14;;;;;;;5.10;3.83;;;;;;;;;;4981627;28;20401;-93
2021/08/05 01:17:46;;;;;;;6.82;4.80;;;;;;;;;;4974805;28;20419;-93
2021/08/05 01:20:17;;;;;;;8.40;4.60;;;;;;;;;;4975356;28;20412;-94
2021/08/05 01:22:48;;;;;;;4.22;3.42;;;;;;;;;;4975850;28;20424;-94
2021/08/05 01:25:28;;;;;;;4.35;3.95;;;;;;;;;;4981217;28;20440;-94
2021/08/05 01:27:58;;;;;;;4.30;3.88;;;;;;;;;;4977539;28;20462;-95
2021/08/05 01:30:27;;;;;;;3.65;3.10;;;;;;;;;;4963972;28;20500;-94
2021/08/05 01:32:57;;;;;;;2.45;2.25;;;;;;;;;;4981047;28;20893;-93
2021/08/05 01:35:24;;;;;;;4.00;2.38;;;;;;;;;;4981392;28;20475;-94
2021/08/05 01:37:53;;;;;;;3.60;2.58;;;;;;;;;;4976154;28;20414;-94
2021/08/05 01:40:21;;;;;;;4.60;2.58;;;;;;;;;;4979277;28;20860;-95
2021/08/05 01:42:49;;;;;;;3.40;2.25;;;;;;;;;;4979148;28;20463;-95
2021/08/05 01:45:18;;;;;;;3.17;2.42;;;;;;;;;;4981129;28;20424;-94
2021/08/05 01:47:46;;;;;;;2.35;2.15;;;;;;;;;;4977895;28;20410;-94
2021/08/05 01:50:14;;;;;;;2.88;2.25;;;;;;;;;;4969714;28;20414;-94
2021/08/05 01:52:43;;;;;;;3.92;2.25;;;;;;;;;;4978240;28;20424;-93
2021/08/05 01:55:12;;;;;;;2.47;2.00;;;;;;;;;;4978967;28;20505;-94
2021/08/05 01:57:39;;;;;;;3.30;2.10;;;;;;;;;;4979150;28;20424;-94
2021/08/05 02:00:09;;;;;;;3.78;1.90;;;;;;;;;;4980152;28;20416;-95
2021/08/05 02:02:38;;;;;;;3.95;2.00;;;;;;;;;;4969177;28;20410;-93
2021/08/05 02:05:07;;;;;;;4.07;2.13;;;;;;;;;;4969586;28;20427;-94
2021/08/05 02:07:38;;;;;;;3.10;2.20;;;;;;;;;;4966095;28;20425;-94
2021/08/05 02:10:10;;;;;;;2.40;2.10;;;;;;;;;;4965600;28;20414;-94
2021/08/05 02:12:43;;;;;;;2.92;2.42;;;;;;;;;;4965698;28;20525;-94
2021/08/05 02:15:11;;;;;;;4.13;2.30;;;;;;;;;;4969302;28;20419;-94
2021/08/05 02:17:42;;;;;;;4.97;2.80;;;;;;;;;;4968872;28;20406;-93
2021/08/05 02:20:12;;;;;;;3.80;3.07;;;;;;;;;;4968996;28;20410;-93
2021/08/05 02:22:42;;;;;;;4.03;3.08;;;;;;;;;;4968925;28;20410;-93
2021/08/05 02:25:10;;;;;;;3.60;2.97;;;;;;;;;;4968536;28;20442;-93
2021/08/05 02:27:38;;;;;;;5.47;3.45;;;;;;;;;;4968864;28;20419;-94
2021/08/05 02:30:07;;;;;;;5.78;3.53;;;;;;;;;;4951421;28;20807;-95
2021/08/05 02:32:34;;;;;;;4.43;3.30;;;;;;;;;;4965329;28;20437;-93
2021/08/05 02:35:07;;;;;;;6.07;3.42;;;;;;;;;;4964370;28;20421;-93
2021/08/05 02:37:34;;;;;;;5.18;3.55;;;;;;;;;;4965038;28;20418;-94
2021/08/05 02:40:01;;;;;;;4.03;3.30;;;;;;;;;;4968246;28;20426;-93
2021/08/05 02:42:29;;;;;;;4.95;3.40;;;;;;;;;;4968942;28;20725;-92
2021/08/05 02:44:58;;;;;;;4.45;2.90;;;;;;;;;;4968792;28;20427;-92
2021/08/05 02:47:25;;;;;;;4.63;2.83;;;;;;;;;;4964350;28;20622;-92
2021/08/05 02:49:54;;;;;;;3.08;2.78;;;;;;;;;;4983351;28;20420;-92
2021/08/05 02:52:22;;;;;;;3.88;2.72;;;;;;;;;;4990529;28;20402;-92
2021/08/05 02:54:50;;;;;;;4.00;2.97;;;;;;;;;;4991933;28;20473;-93
2021/08/05 02:57:17;;;;;;;3.30;3.00;;;;;;;;;;4970410;28;20410;-92
2021/08/05 02:59:44;;;;;;;5.10;3.10;;;;;;;;;;4967727;28;20406;-93
2021/08/05 03:02:14;;;;;;;3.88;3.00;;;;;;;;;;4968841;28;20414;-92
2021/08/05 03:04:41;;;;;;;4.38;2.78;;;;;;;;;;4968124;28;20425;-93
2021/08/05 03:07:11;;;;;;;3.58;2.95;;;;;;;;;;4968490;28;20406;-93
2021/08/05 03:09:40;;;;;;;4.00;3.20;;;;;;;;;;4968775;28;20704;-93
2021/08/05 03:12:07;;;;;;;4.30;3.40;;;;;;;;;;4968224;28;20438;-92
2021/08/05 03:14:34;;;;;;;5.07;3.20;;;;;;;;;;4968466;28;20922;-92
2021/08/05 03:17:02;;;;;;;3.67;3.03;;;;;;;;;;4968150;28;20772;-93
2021/08/05 03:19:29;;;;;;;4.57;3.10;;;;;;;;;;4951449;28;20417;-93
2021/08/05 03:21:57;;;;;;;3.47;2.95;;;;;;;;;;4971235;28;20418;-93
2021/08/05 03:24:24;;;;;;;3.90;3.17;;;;;;;;;;4972888;28;20410;-93
2021/08/05 03:26:52;;;;;;;4.53;3.33;;;;;;;;;;4972186;28;20583;-92
2021/08/05 03:29:19;;;;;;;3.72;3.10;;;;;;;;;;4972489;28;20742;-92
2021/08/05 03:31:46;;;;;;;3.20;2.90;;;;;;;;;;4971478;28;20481;-93
2021/08/05 03:34:13;;;;;;;4.25;3.33;;;;;;;;;;4955138;28;20414;-92
2021/08/05 03:36:40;;;;;;;4.25;3.40;;;;;;;;;;4954503;28;20445;-93
2021/08/05 03:39:07;;;;;;;5.18;3.55;;;;;;;;;;4972033;28;20425;-93
2021/08/05 03:41:34;;;;;;;3.53;3.22;;;;;;;;;;4954514;28;20421;-93
2021/08/05 03:44:02;;;;;;;4.90;3.50;;;;;;;;;;4971761;28;20418;-93
2021/08/05 03:46:29;;;;;;;4.20;3.42;;;;;;;;;;4971613;28;20417;-93
2021/08/05 03:48:58;;;;;;;3.80;3.40;;;;;;;;;;4971520;28;20902;-93
2021/08/05 03:51:25;;;;;;;5.68;3.60;;;;;;;;;;4970545;28;20414;-92
2021/08/05 03:53:52;;;;;;;7.22;4.05;;;;;;;;;;4971669;28;20811;-93
2021/08/05 03:56:19;;;;;;;4.22;3.45;;;;;;;;;;4971726;28;20440;-92
2021/08/05 03:58:46;;;;;;;5.18;3.15;;;;;;;;;;4971228;28;20426;-92
2021/08/05 04:01:14;;;;;;;4.03;3.43;;;;;;;;;;4971182;28;20405;-92
2021/08/05 04:03:41;;;;;;;4.00;3.53;;;;;;;;;;4969865;28;20426;-93
2021/08/05 04:06:09;;;;;;;4.63;3.60;;;;;;;;;;4949646;28;20411;-93
2021/08/05 04:08:36;;;;;;;4.07;3.25;;;;;;;;;;4959121;28;20774;-92
2021/08/05 04:11:03;;;;;;;5.55;3.80;;;;;;;;;;4979041;28;20417;-93
2021/08/05 04:13:30;;;;;;;4.03;3.63;;;;;;;;;;4962137;28;20461;-93
2021/08/05 04:15:57;;;;;;;6.97;4.65;;;;;;;;;;4981330;28;20862;-92
2021/08/05 04:18:25;;;;;;;6.63;4.47;;;;;;;;;;4983966;28;20829;-92
2021/08/05 04:20:52;;;;;;;5.93;4.25;;;;;;;;;;4982995;28;20405;-92
2021/08/05 04:23:19;;;;;;;7.10;4.77;;;;;;;;;;4980406;28;20425;-92
2021/08/05 04:25:46;;;;;;;7.53;5.67;;;;;;;;;;4980305;28;20469;-92
2021/08/05 04:28:14;;;;;;;5.85;4.53;;;;;;;;;;4983761;28;20479;-92
2021/08/05 04:30:40;;;;;;;6.65;4.80;;;;;;;;;;4979778;28;20495;-92
2021/08/05 04:33:07;;;;;;;6.68;4.80;;;;;;;;;;4983193;28;20432;-92
2021/08/05 04:35:36;;;;;;;6.10;4.15;;;;;;;;;;4983369;28;20414;-92
2021/08/05 04:38:04;;;;;;;5.97;4.25;;;;;;;;;;4979032;28;20937;-92
2021/08/05 04:40:31;;;;;;;6.30;4.20;;;;;;;;;;4981630;28;20512;-92
2021/08/05 04:43:00;;;;;;;4.63;4.10;;;;;;;;;;4980219;28;20410;-92
2021/08/05 04:45:27;;;;;;;6.82;3.88;;;;;;;;;;4981014;28;20421;-92
2021/08/05 04:47:55;;;;;;;5.15;3.97;;;;;;;;;;4982254;28;20589;-92
2021/08/05 04:50:23;;;;;;;5.80;4.10;;;;;;;;;;4979890;28;20802;-92
2021/08/05 04:52:52;;;;;;;5.18;3.97;;;;;;;;;;4979501;28;20429;-90
2021/08/05 04:55:19;;;;;;;5.95;4.53;;;;;;;;;;4979031;28;20424;-91
2021/08/05 04:57:53;;;;;;;7.93;4.60;;;;;;;;;;4981191;28;20413;-92
2021/08/05 05:00:24;;;;;;;5.47;4.60;;;;;;;;;;4980678;28;20432;-92
2021/08/05 05:02:51;;;;;;;5.68;4.30;;;;;;;;;;4981196;28;20805;-91
2021/08/05 05:05:18;;;;;;;6.50;4.20;;;;;;;;;;4981888;28;20409;-92
2021/08/05 05:07:45;;;;;;;4.63;4.03;;;;;;;;;;4976316;28;20423;-92
2021/08/05 05:10:14;;;;;;;4.70;3.78;;;;;;;;;;4982166;28;20412;-92
2021/08/05 05:12:41;;;;;;;5.72;3.85;;;;;;;;;;4982002;28;20432;-92
2021/08/05 05:15:10;;;;;;;4.32;3.60;;;;;;;;;;4981101;28;20436;-92
2021/08/05 05:17:37;;;;;;;4.63;3.90;;;;;;;;;;4979027;28;21292;-92
2021/08/05 05:20:06;;;;;;;6.30;3.70;;;;;;;;;;4979102;28;20414;-92
2021/08/05 05:22:33;;;;;;;5.13;4.22;;;;;;;;;;4960826;28;20407;-92
2021/08/05 05:25:01;;;;;;;6.88;4.43;;;;;;;;;;4978390;28;20417;-92
2021/08/05 05:27:29;;;;;;;5.73;4.57;;;;;;;;;;4977719;28;20423;-92
2021/08/05 05:29:59;;;;;;;5.20;4.47;;;;;;;;;;4978636;28;20451;-92
2021/08/05 05:32:26;;;;;;;7.30;5.50;;;;;;;;;;4980073;28;20430;-91
2021/08/05 05:34:54;;;;;;;5.85;5.10;;;;;;;;;;4977848;28;20418;-91
2021/08/05 05:37:22;;;;;;;6.32;5.05;;;;;;;;;;4979345;28;20412;-91
2021/08/05 05:39:49;;;;;;;5.65;4.57;;;;;;;;;;4978668;28;20423;-90
2021/08/05 05:42:16;;;;;;;7.63;5.57;;;;;;;;;;4978464;28;20443;-92
2021/08/05 05:44:45;;;;;;;6.13;5.00;;;;;;;;;;4977129;28;20413;-92
2021/08/05 05:47:11;;;;;;;7.47;4.88;;;;;;;;;;4978409;28;20463;-92
2021/08/05 05:49:39;;;;;;;5.25;4.75;;;;;;;;;;4980949;28;20409;-92
2021/08/05 05:52:06;;;;;;;6.13;4.78;;;;;;;;;;4980814;28;20429;-92
2021/08/05 05:54:33;;;;;;;5.07;4.18;;;;;;;;;;4961031;28;20411;-92
2021/08/05 05:57:01;;;;;;;5.68;4.65;;;;;;;;;;4998517;28;20580;-91
2021/08/05 05:59:29;;;;;;;5.30;4.60;;;;;;;;;;4997585;28;20897;-91
2021/08/05 06:01:57;;;;;;;4.00;3.13;;;;;;;;;;4998668;28;20768;-92
2021/08/05 06:04:25;;;;;;;2.95;2.40;;;;;;;;;;4999269;28;20410;-92
2021/08/05 06:06:52;;;;;;;3.10;2.40;;;;;;;;;;4997778;28;20412;-92
2021/08/05 06:09:18;;;;;;;2.28;1.90;;;;;;;;;;4998437;28;20407;-91
2021/08/05 06:11:45;;;;;;;3.20;2.28;;;;;;;;;;4994321;28;20410;-91
2021/08/05 06:14:12;;;;;;;4.43;1.80;;;;;;;;;;4997184;28;20403;-92
2021/08/05 06:16:41;;;;;;;1.20;1.10;;;;;;;;;;4996872;28;20783;-90
2021/08/05 06:19:09;;;;;;;1.30;0.98;;;;;;;;;;4997042;28;20995;-91
2021/08/05 06:21:36;;;;;;;1.60;0.85;;;;;;;;;;4999433;28;20404;-91
2021/08/05 06:24:03;;;;;;;1.08;0.65;;;;;;;;;;4996444;28;20425;-91
2021/08/05 06:26:30;;;;;;;3.00;0.70;;;;;;;;;;4996021;28;20408;-90
2021/08/05 06:28:58;;;;;;;1.60;0.60;;;;;;;;;;4980664;28;20397;-91
2021/08/05 06:31:24;;;;;;;1.98;0.65;;;;;;;;;;4997230;28;20413;-90
2021/08/05 06:33:52;;;;;;;2.00;1.10;;;;;;;;;;4995007;28;20698;-90
2021/08/05 06:36:21;;;;;;;1.10;0.70;;;;;;;;;;4997583;28;20414;-91
2021/08/05 06:38:48;;;;;;;1.85;0.65;;;;;;;;;;4999555;28;20414;-91
2021/08/05 06:41:15;;;;;;;0.93;0.80;;;;;;;;;;5001513;28;20407;-90
2021/08/05 06:43:42;;;;;;;2.00;0.67;;;;;;;;;;5002279;28;20408;-90
2021/08/05 06:46:09;;;;;;;1.35;1.02;;;;;;;;;;4993752;28;20423;-90
2021/08/05 06:48:36;;;;;;;1.20;0.93;;;;;;;;;;5014015;28;20404;-91
2021/08/05 06:51:03;;;;;;;1.33;1.10;;;;;;;;;;4996682;28;20406;-91
2021/08/05 06:53:32;;;;;;;2.20;1.13;;;;;;;;;;4995937;28;20448;-91
2021/08/05 06:55:59;;;;;;;2.60;1.40;;;;;;;;;;4984415;28;20409;-91
2021/08/05 06:58:26;;;;;;;1.60;1.50;;;;;;;;;;4977825;28;20413;-91
2021/08/05 07:00:52;;;;;;;2.42;1.80;;;;;;;;;;4977133;28;20717;-91
2021/08/05 07:03:19;;;;;;;3.30;2.10;;;;;;;;;;4976661;28;20412;-91
2021/08/05 07:05:46;;;;;;;3.28;2.40;;;;;;;;;;4977340;28;20412;-90
2021/08/05 07:08:13;;;;;;;5.30;3.45;;;;;;;;;;4977442;28;20483;-91
2021/08/05 07:10:42;;;;;;;5.40;3.78;;;;;;;;;;4963433;28;20424;-91
2021/08/05 07:13:08;;;;;;;5.10;3.83;;;;;;;;;;4976763;28;20453;-90
2021/08/05 07:15:36;;;;;;;4.00;3.60;;;;;;;;;;4977143;28;20410;-91
2021/08/05 07:18:03;;;;;;;4.55;3.88;;;;;;;;;;4974174;28;20414;-90
2021/08/05 07:20:30;;;;;;;5.18;3.63;;;;;;;;;;4976494;28;20744;-91
2021/08/05 07:22:57;;;;;;;4.35;3.53;;;;;;;;;;4976594;28;20429;-91
2021/08/05 07:25:24;;;;;;;3.83;3.08;;;;;;;;;;4976417;28;20985;-90
2021/08/05 07:27:52;;;;;;;4.57;3.10;;;;;;;;;;4976311;28;20975;-91
2021/08/05 07:30:19;;;;;;;3.90;3.08;;;;;;;;;;4974667;28;20423;-91
2021/08/05 07:32:46;;;;;;;4.53;3.13;;;;;;;;;;4972974;28;20425;-90
2021/08/05 07:35:13;;;;;;;3.42;2.97;;;;;;;;;;4977233;28;20441;-90
2021/08/05 07:37:40;;;;;;;4.18;3.42;;;;;;;;;;4977159;28;21441;-90
2021/08/05 07:40:08;;;;;;;3.65;3.30;;;;;;;;;;4975400;28;20425;-90
2021/08/05 07:42:35;;;;;;;5.55;3.75;;;;;;;;;;4971274;28;20823;-84
2021/08/05 07:45:04;;;;;;;4.07;3.60;;;;;;;;;;4974213;28;20571;-91
2021/08/05 07:47:31;;;;;;;5.63;3.00;;;;;;;;;;4973770;28;20452;-91
2021/08/05 07:49:58;;;;;;;4.65;3.67;;;;;;;;;;4973074;28;20421;-91
2021/08/05 07:52:24;;;;;;;5.28;3.58;;;;;;;;;;4976159;28;20404;-91
2021/08/05 07:54:51;;;;;;;5.05;3.47;;;;;;;;;;4977431;28;20416;-91
2021/08/05 07:57:18;;;;;;;4.78;3.58;;;;;;;;;;4974826;28;20614;-91
2021/08/05 07:59:45;;;;;;;6.47;3.42;;;;;;;;;;4974305;28;20413;-90
2021/08/05 08:02:14;;;;;;;4.32;3.92;;;;;;;;;;4976385;28;20613;-91
2021/08/05 08:04:41;;;;;;;5.07;4.32;;;;;;;;;;4978053;28;20912;-90
2021/08/05 08:07:08;;;;;;;4.55;3.97;;;;;;;;;;4977370;28;20872;-89
2021/08/05 08:09:35;;;;;;;5.40;3.70;;;;;;;;;;4979788;28;20410;-90
2021/08/05 08:12:02;;;;;;;4.72;4.10;;;;;;;;;;4978262;28;20425;-90
2021/08/05 08:14:29;;;;;;;6.63;3.85;;;;;;;;;;4977184;28;20434;-90
2021/08/05 08:16:56;;;;;;;4.30;3.45;;;;;;;;;;4978233;28;20449;-90
2021/08/05 08:19:25;;;;;;;5.55;3.83;;;;;;;;;;4983752;28;20603;-90
2021/08/05 08:21:52;;;;;;;4.82;3.58;;;;;;;;;;4978668;28;20469;-89
2021/08/05 08:24:21;;;;;;;6.00;4.28;;;;;;;;;;4979166;28;20409;-90
2021/08/05 08:26:48;;;;;;;6.65;3.63;;;;;;;;;;4974529;28;20413;-89
2021/08/05 08:29:16;;;;;;;4.47;2.88;;;;;;;;;;4961711;28;20415;-90
2021/08/05 08:31:43;;;;;;;3.63;2.92;;;;;;;;;;4978696;28;20436;-90
2021/08/05 08:34:10;;;;;;;3.67;3.13;;;;;;;;;;4978728;28;20524;-90
2021/08/05 08:36:39;;;;;;;3.42;2.70;;;;;;;;;;4976888;28;20673;-90
2021/08/05 08:39:06;;;;;;;3.70;2.50;;;;;;;;;;4976657;28;20410;-90
2021/08/05 08:41:34;;;;;;;3.77;2.27;;;;;;;;;;4978867;28;20422;-90
2021/08/05 08:44:01;;;;;;;3.53;2.60;;;;;;;;;;4977469;28;20410;-90
2021/08/05 08:46:31;;;;;;;2.58;2.30;;;;;;;;;;4977612;28;20422;-90
2021/08/05 08:48:58;;;;;;;3.03;2.47;;;;;;;;;;4977067;28;20411;-90
2021/08/05 08:51:26;;;;;;;4.10;2.30;;;;;;;;;;4977894;28;20408;-90
2021/08/05 08:53:56;;;;;;;1.92;1.52;;;;;;;;;;4977537;28;20430;-90
2021/08/05 08:56:23;;;;;;;2.83;1.90;;;;;;;;;;4975413;28;20421;-91
2021/08/05 08:58:51;;;;;;;3.23;1.70;;;;;;;;;;4977735;28;20406;-91
2021/08/05 09:01:18;;;;;;;1.77;1.67;;;;;;;;;;4976191;28;20405;-91
2021/08/05 09:03:46;;;;;;;2.25;2.05;;;;;;;;;;4974537;28;20413;-91
2021/08/05 09:06:13;;;;;;;4.05;2.63;;;;;;;;;;4978718;28;20436;-91
2021/08/05 09:08:41;;;;;;;2.92;2.60;;;;;;;;;;4980424;28;20434;-90
2021/08/05 09:11:10;;;;;;;3.35;2.42;;;;;;;;;;4958866;28;20433;-91
2021/08/05 09:13:37;;;;;;;2.40;2.20;;;;;;;;;;4977880;28;21235;-91
2021/08/05 09:16:20;;;;;;;3.47;2.22;;;;;;;;;;4960550;28;20688;-91
2021/08/05 09:18:47;;;;;;;4.13;2.70;;;;;;;;;;4976260;28;20420;-91
2021/08/05 09:21:16;;;;;;;7.87;2.40;;;;;;;;;;4978065;28;20424;-91
2021/08/05 09:23:48;;;;;;;3.42;1.80;;;;;;;;;;4975269;28;20405;-90
2021/08/05 09:26:36;;;;;;;2.17;1.65;;;;;;;;;;4977504;28;20475;-91
2021/08/05 09:29:10;;;;;;;2.05;1.75;;;;;;;;;;4959297;28;20410;-91
2021/08/05 09:31:39;;;;;;;2.65;1.70;;;;;;;;;;4976334;28;20886;-91
2021/08/05 09:34:07;;;;;;;2.50;1.80;;;;;;;;;;4976962;28;20907;-91
2021/08/05 09:36:35;;;;;;;2.63;2.00;;;;;;;;;;4975125;28;20434;-90
2021/08/05 09:39:14;;;;;;;2.83;1.80;;;;;;;;;;4976101;28;20414;-90
2021/08/05 09:41:56;;;;;;;3.50;2.08;;;;;;;;;;4975810;28;20410;-91
2021/08/05 09:44:23;;;;;;;2.35;2.10;;;;;;;;;;4974179;28;20417;-91
2021/08/05 09:47:02;;;;;;;3.10;2.00;;;;;;;;;;4976584;28;20837;-92
2021/08/05 09:49:29;;;;;;;2.60;2.37;;;;;;;;;;4977063;28;20496;-90
2021/08/05 09:51:56;;;;;;;3.63;2.10;;;;;;;;;;4975278;28;20414;-91
2021/08/05 09:54:23;;;;;;;2.20;1.95;;;;;;;;;;4973824;28;20425;-90
2021/08/05 09:56:55;;;;;;;2.33;1.92;;;;;;;;;;4975243;28;20420;-90
2021/08/05 09:59:22;;;;;;;2.90;2.03;;;;;;;;;;4973324;28;20436;-91
2021/08/05 10:02:01;;;;;;;2.35;2.15;;;;;;;;;;4972846;28;20535;-91
2021/08/05 10:04:30;;;;;;;2.28;2.00;;;;;;;;;;4974429;28;20506;-91
2021/08/05 10:07:05;;;;;;;2.78;2.13;;;;;;;;;;4975122;28;20469;-91
2021/08/05 10:09:33;;;;;;;2.60;2.30;;;;;;;;;;4971553;28;20423;-91
2021/08/05 10:12:15;;;;;;;4.55;2.50;;;;;;;;;;4974568;28;20424;-91
2021/08/05 10:14:43;;;;;;;3.45;2.20;;;;;;;;;;4975032;28;20430;-91
2021/08/05 10:17:11;;;;;;;2.77;2.30;;;;;;;;;;4976226;28;20433;-91
2021/08/05 10:19:39;;;;;;;3.25;2.50;;;;;;;;;;4974135;28;20426;-90
2021/08/05 10:22:08;;;;;;;2.85;2.40;;;;;;;;;;4975154;28;20465;-91
2021/08/05 10:24:36;;;;;;;2.60;2.40;;;;;;;;;;4972428;28;20415;-91
2021/08/05 10:27:06;;;;;;;3.05;2.50;;;;;;;;;;4959785;28;20414;-91
2021/08/05 10:29:35;;;;;;;3.38;2.90;;;;;;;;;;4978218;28;20923;-91
2021/08/05 10:32:04;;;;;;;3.42;2.50;;;;;;;;;;4972250;28;20497;-91
2021/08/05 10:34:35;;;;;;;3.90;3.00;;;;;;;;;;4974452;28;20514;-91
2021/08/05 10:37:02;;;;;;;3.10;2.47;;;;;;;;;;4974120;28;20793;-91
2021/08/05 10:39:29;;;;;;;2.88;2.60;;;;;;;;;;4975467;28;20418;-91
2021/08/05 10:41:59;;;;;;;4.93;2.60;;;;;;;;;;4975105;28;20417;-91
2021/08/05 10:44:27;;;;;;;3.10;2.40;;;;;;;;;;4974735;28;20443;-91
2021/08/05 10:46:56;;;;;;;2.72;2.20;;;;;;;;;;4977160;28;20420;-91
2021/08/05 10:49:24;;;;;;;3.03;2.10;;;;;;;;;;4953191;28;20405;-91
2021/08/05 10:51:51;;;;;;;3.38;2.50;;;;;;;;;;4971335;28;20404;-91
2021/08/05 10:54:52;;;;;;;3.07;2.37;;;;;;;;;;4974424;28;20936;-91
2021/08/05 10:57:22;;;;;;;3.70;2.50;;;;;;;;;;4966892;28;20505;-90
2021/08/05 10:59:59;;;;;;;2.10;1.90;;;;;;;;;;4966534;28;20414;-91
2021/08/05 11:02:49;;;;;;;2.85;1.95;;;;;;;;;;4965872;28;20485;-91
2021/08/05 11:05:46;;;;;;;2.60;1.50;;;;;;;;;;4966007;28;20425;-91
2021/08/05 11:08:29;;;;;;;1.92;1.52;;;;;;;;;;4963790;28;20410;-90
2021/08/05 11:11:30;;;;;;;2.90;1.40;;;;;;;;;;4965367;28;20410;-91
2021/08/05 11:14:34;;;;;;;1.95;1.20;;;;;;;;;;4964456;28;20469;-91
2021/08/05 11:17:02;;;;;;;1.92;0.90;;;;;;;;;;4965572;28;20721;-91
2021/08/05 11:19:32;;;;;;;1.05;0.52;;;;;;;;;;4967008;28;20419;-91
2021/08/05 11:22:50;;;;;;;1.00;0.60;;;;;;;;;;4966183;28;20481;-91
2021/08/05 11:25:17;;;;;;;0.88;0.50;;;;;;;;;;4966008;28;20430;-91
2021/08/05 11:28:24;;;;;;;0.82;0.40;;;;;;;;;;4966393;28;20422;-90
2021/08/05 11:30:53;;;;;;;0.82;0.50;;;;;;;;;;4964450;28;20418;-91
2021/08/05 11:34:05;;;;;;;0.60;0.60;;;;;;;;;;4966177;28;20410;-91
2021/08/05 11:36:40;;;;;;;2.33;0.30;;;;;;;;;;4963837;28;20407;-91
2021/08/05 11:39:27;;;;;;;1.15;0.40;;;;;;;;;;4964575;28;20481;-91
2021/08/05 11:41:57;;;;;;;2.75;0.60;;;;;;;;;;4965883;28;20422;-91
2021/08/05 11:44:37;;;;;;;0.65;0.45;;;;;;;;;;4969508;28;20970;-91
2021/08/05 11:47:41;;;;;;;2.10;0.70;;;;;;;;;;4967587;28;20800;-91
2021/08/05 11:50:19;;;;;;;1.15;0.50;;;;;;;;;;4880935;29;20613;-92
2021/08/05 11:52:47;;;;;;;2.92;0.60;;;;;;;;;;4958006;28;20518;-92
2021/08/05 11:55:16;;;;;;;1.33;0.53;;;;;;;;;;4971446;28;20464;-91
2021/08/05 11:57:44;;;;;;;1.20;0.40;;;;;;;;;;4962298;28;20465;-91
2021/08/05 12:00:16;;;;;;;2.42;0.60;;;;;;;;;;4973098;28;20414;-91
2021/08/05 12:02:44;;;;;;;1.77;0.50;;;;;;;;;;4974927;28;20417;-91
2021/08/05 12:05:12;;;;;;;2.45;0.50;;;;;;;;;;4977462;28;20411;-91
2021/08/05 12:07:40;;;;;;;3.10;0.50;;;;;;;;;;4985523;28;20406;-91
2021/08/05 12:10:13;;;;;;;1.60;0.60;;;;;;;;;;4984306;28;20403;-92
2021/08/05 12:12:44;;;;;;;2.40;0.65;;;;;;;;;;4982787;28;20414;-91
2021/08/05 12:15:14;;;;;;;1.65;0.60;;;;;;;;;;4978518;28;20447;-91
2021/08/05 12:17:47;;;;;;;2.10;0.50;;;;;;;;;;4978988;28;20744;-91
2021/08/05 12:20:17;;;;;;;1.95;0.57;;;;;;;;;;4978505;28;20410;-91
2021/08/05 12:22:47;;;;;;;1.55;0.60;;;;;;;;;;4972754;28;20410;-91
2021/08/05 12:25:43;;;;;;;1.70;0.43;;;;;;;;;;4976694;28;20410;-91
2021/08/05 12:28:12;;;;;;;0.90;0.30;;;;;;;;;;4971452;28;20421;-90
2021/08/05 12:30:46;;;;;;;0.47;0.40;;;;;;;;;;4976680;28;20480;-91
2021/08/05 12:33:16;;;;;;;1.50;0.50;;;;;;;;;;4973650;28;20494;-91
2021/08/05 12:35:57;;;;;;;7.03;0.50;;;;;;;;;;4970538;28;20431;-91
2021/08/05 12:38:24;;;;;;;0.82;0.32;;;;;;;;;;4974129;28;20927;-91
2021/08/05 12:40:52;;;;;;;0.60;0.35;;;;;;;;;;4976007;28;20408;-91
2021/08/05 12:43:19;;;;;;;0.50;0.30;;;;;;;;;;4976123;28;20420;-91
2021/08/05 12:45:49;;;;;;;1.65;0.40;;;;;;;;;;4975483;28;20421;-91
2021/08/05 12:48:16;;;;;;;1.98;0.38;;;;;;;;;;4975772;28;20489;-91
2021/08/05 12:50:45;;;;;;;1.50;0.40;;;;;;;;;;4975354;28;20414;-92
2021/08/05 12:53:24;;;;;;;1.98;0.30;;;;;;;;;;4966567;28;20896;-91
2021/08/05 12:55:53;;;;;;;2.90;0.40;;;;;;;;;;4974737;28;20420;-91
2021/08/05 12:58:20;;;;;;;1.00;0.50;;;;;;;;;;4981151;28;20412;-91
2021/08/05 13:00:51;;;;;;;1.90;0.40;;;;;;;;;;4979488;28;20424;-92
2021/08/05 13:03:37;;;;;;;2.63;0.50;;;;;;;;;;4976081;28;20421;-91
2021/08/05 13:06:04;;;;;;;0.45;0.43;;;;;;;;;;4974390;28;20906;-92
2021/08/05 13:08:32;;;;;;;0.75;0.40;;;;;;;;;;4975077;28;20410;-92
2021/08/05 13:11:00;;;;;;;2.90;0.40;;;;;;;;;;4969791;28;20508;-91
2021/08/05 13:13:48;;;;;;;2.08;0.40;;;;;;;;;;4970958;28;20412;-91
2021/08/05 13:16:25;;;;;;;1.13;0.30;;;;;;;;;;4974547;28;20533;-92
2021/08/05 13:19:11;;;;;;;1.23;0.40;;;;;;;;;;4956787;28;20397;-91
2021/08/05 13:21:57;;;;;;;1.80;0.60;;;;;;;;;;4972611;28;20497;-91
2021/08/05 13:24:26;;;;;;;1.23;0.40;;;;;;;;;;4968431;28;20925;-91
2021/08/05 13:26:56;;;;;;;2.30;0.40;;;;;;;;;;4969950;28;20423;-92
2021/08/05 13:29:46;;;;;;;0.80;0.40;;;;;;;;;;4977067;28;20759;-92
2021/08/05 13:32:16;;;;;;;0.90;0.40;;;;;;;;;;4977136;28;20449;-92
2021/08/05 13:35:01;;;;;;;1.65;0.50;;;;;;;;;;4979283;28;20481;-92
2021/08/05 13:37:29;;;;;;;1.30;0.40;;;;;;;;;;4971730;28;20469;-91
2021/08/05 13:39:58;;;;;;;1.50;0.40;;;;;;;;;;4954298;28;20471;-92
2021/08/05 13:42:26;;;;;;;1.42;0.50;;;;;;;;;;4972153;28;20467;-92
2021/08/05 13:44:54;;;;;;;1.35;0.40;;;;;;;;;;4976093;28;20409;-92
2021/08/05 13:47:23;;;;;;;0.60;0.50;;;;;;;;;;4976578;28;20964;-92
2021/08/05 13:49:50;;;;;;;1.33;0.40;;;;;;;;;;4948287;28;20456;-91
2021/08/05 13:52:18;;;;;;;2.15;0.50;;;;;;;;;;4959873;28;20414;-91
2021/08/05 13:54:45;;;;;;;2.13;0.32;;;;;;;;;;4968792;28;20434;-93
2021/08/05 13:57:12;;;;;;;1.17;0.40;;;;;;;;;;4973547;28;20923;-91
2021/08/05 13:59:40;;;;;;;2.70;0.40;;;;;;;;;;4972281;28;20411;-92
2021/08/05 14:02:07;;;;;;;1.70;0.40;;;;;;;;;;4973062;28;20429;-92
2021/08/05 14:04:35;;;;;;;1.60;0.50;;;;;;;;;;4969654;28;20410;-92
2021/08/05 14:07:03;;;;;;;1.27;0.40;;;;;;;;;;4957959;28;20463;-91
2021/08/05 14:09:30;;;;;;;1.90;0.60;;;;;;;;;;4971941;28;20410;-92
2021/08/05 14:11:57;;;;;;;6.60;1.60;;;;;;;;;;4972336;28;20408;-91
2021/08/05 14:14:24;;;;;;;2.40;0.70;;;;;;;;;;4971605;28;20417;-92
2021/08/05 14:16:51;;;;;;;1.95;0.55;;;;;;;;;;4972406;28;20888;-92
2021/08/05 14:19:20;;;;;;;2.33;0.60;;;;;;;;;;4971439;28;20419;-92
2021/08/05 14:21:50;;;;;;;2.35;0.70;;;;;;;;;;4972014;28;20791;-92
2021/08/05 14:24:20;;;;;;;2.20;0.50;;;;;;;;;;4972319;28;20442;-92
2021/08/05 14:26:49;;;;;;;2.50;0.52;;;;;;;;;;4972443;28;20415;-92
2021/08/05 14:29:17;;;;;;;1.52;0.50;;;;;;;;;;4972402;28;20967;-92
2021/08/05 14:31:44;;;;;;;2.28;0.50;;;;;;;;;;4972400;28;20429;-92
2021/08/05 14:34:11;;;;;;;1.33;0.50;;;;;;;;;;4974347;28;20417;-92
2021/08/05 14:36:38;;;;;;;1.80;0.60;;;;;;;;;;4954642;28;20418;-92
2021/08/05 14:39:07;;;;;;;1.80;0.50;;;;;;;;;;4974086;28;20421;-92
2021/08/05 14:41:35;;;;;;;1.83;0.40;;;;;;;;;;4968959;28;20406;-91
2021/08/05 14:44:07;;;;;;;2.28;0.60;;;;;;;;;;4971141;28;20415;-92
2021/08/05 14:46:34;;;;;;;1.70;0.50;;;;;;;;;;4973496;28;20461;-92
2021/08/05 14:49:01;;;;;;;1.00;0.40;;;;;;;;;;4970745;28;20403;-91
2021/08/05 14:51:28;;;;;;;1.13;0.52;;;;;;;;;;4971614;28;20421;-92
2021/08/05 14:53:55;;;;;;;1.50;0.40;;;;;;;;;;4971289;28;20445;-92
2021/08/05 14:56:25;;;;;;;2.10;0.50;;;;;;;;;;4970797;28;20439;-92
2021/08/05 14:58:53;;;;;;;1.17;0.60;;;;;;;;;;4971163;28;20420;-92